Time;durP1;ratioP1;P1;durP2;ratioP2;P2;SDS_P1;SDS_P2;PMS_P1;PMS_P2;Temp;Humidity;BMP_temperature;BMP_pressure;BME280_temperature;BME280_humidity;BME280_pressure;Samples;Min_cycle;Max_cycle;Signal;HPM_P1;HPM_P2
2023/07/06 00:00:38;;;;;;;4.90;2.00;;;17.20;89.60;;;;;;10451950;28;20104;-66
2023/07/06 00:05:44;;;;;;;2.75;1.83;;;17.10;89.60;;;;;;10437061;28;20291;-64
2023/07/06 00:10:49;;;;;;;2.50;1.80;;;17.10;89.70;;;;;;10432859;28;20018;-65
2023/07/06 00:15:52;;;;;;;4.97;2.35;;;17.10;89.70;;;;;;10446948;28;20025;-66
2023/07/06 00:20:53;;;;;;;3.42;2.00;;;17.10;89.80;;;;;;10444223;28;20312;-66
2023/07/06 00:25:53;;;;;;;3.10;2.17;;;17.10;89.80;;;;;;10443185;28;20035;-66
2023/07/06 00:30:57;;;;;;;4.93;2.00;;;17.00;89.80;;;;;;10441835;28;20017;-67
2023/07/06 00:35:58;;;;;;;7.22;2.00;;;17.00;89.90;;;;;;10448154;28;20125;-67
2023/07/06 00:40:58;;;;;;;3.00;1.85;;;17.00;89.90;;;;;;10445630;28;20021;-66
2023/07/06 00:46:08;;;;;;;2.85;2.13;;;17.00;89.90;;;;;;10443520;28;20031;-66
2023/07/06 00:51:32;;;;;;;4.03;2.00;;;17.00;89.90;;;;;;10440191;28;20025;-65
2023/07/06 00:56:40;;;;;;;2.33;1.80;;;16.90;89.80;;;;;;10449193;28;20669;-65
2023/07/06 01:01:44;;;;;;;4.53;2.17;;;16.90;89.80;;;;;;10439783;28;20013;-66
2023/07/06 01:06:50;;;;;;;2.88;1.90;;;16.90;89.80;;;;;;10437014;28;20078;-66
2023/07/06 01:11:54;;;;;;;2.85;1.98;;;16.90;89.80;;;;;;10437516;28;20027;-66
2023/07/06 01:17:11;;;;;;;3.35;1.92;;;16.90;89.80;;;;;;10446882;28;20021;-67
2023/07/06 01:22:14;;;;;;;2.75;1.90;;;16.90;90.00;;;;;;10443722;28;20025;-65
2023/07/06 01:27:21;;;;;;;4.22;2.10;;;16.80;89.80;;;;;;10448154;28;20029;-65
2023/07/06 01:32:26;;;;;;;3.83;2.13;;;16.80;89.90;;;;;;10441247;28;20617;-66
2023/07/06 01:37:34;;;;;;;3.08;1.83;;;16.80;90.00;;;;;;10445578;28;20182;-67
2023/07/06 01:42:40;;;;;;;4.13;2.30;;;16.80;90.00;;;;;;10440228;28;20067;-66
2023/07/06 01:47:49;;;;;;;3.60;2.30;;;16.80;89.90;;;;;;10438464;28;20025;-65
2023/07/06 01:53:18;;;;;;;3.50;2.20;;;16.80;90.00;;;;;;10435602;28;20013;-66
2023/07/06 01:58:44;;;;;;;6.88;2.20;;;16.80;90.00;;;;;;10431725;28;20033;-64
2023/07/06 02:03:46;;;;;;;7.30;2.28;;;16.70;90.00;;;;;;10439080;28;20115;-65
2023/07/06 02:08:48;;;;;;;3.75;2.05;;;16.70;89.90;;;;;;10440406;28;20025;-66
2023/07/06 02:13:52;;;;;;;3.75;2.30;;;16.80;90.00;;;;;;10442060;28;20444;-66
2023/07/06 02:18:55;;;;;;;2.95;1.85;;;16.70;90.00;;;;;;10440648;28;20010;-66
2023/07/06 02:23:56;;;;;;;2.38;1.70;;;16.80;90.00;;;;;;10439787;28;20524;-65
2023/07/06 02:28:56;;;;;;;5.22;2.10;;;16.70;90.00;;;;;;10445835;28;20124;-65
2023/07/06 02:33:58;;;;;;;3.30;2.05;;;16.70;90.00;;;;;;10430431;28;20044;-67
2023/07/06 02:39:03;;;;;;;3.70;1.95;;;16.70;90.00;;;;;;10449714;28;20473;-66
2023/07/06 02:44:05;;;;;;;4.53;2.25;;;16.70;90.00;;;;;;10449212;28;20150;-66
2023/07/06 02:49:05;;;;;;;4.65;2.30;;;16.70;90.00;;;;;;10453253;28;20032;-65
2023/07/06 02:54:07;;;;;;;3.80;2.25;;;16.70;90.00;;;;;;10464847;28;20025;-67
2023/07/06 02:59:09;;;;;;;3.65;2.53;;;16.70;90.00;;;;;;10451961;28;20025;-65
2023/07/06 03:04:10;;;;;;;4.53;2.42;;;16.20;90.00;;;;;;10444939;28;20396;-67
2023/07/06 03:09:11;;;;;;;3.65;2.60;;;16.70;90.10;;;;;;10436298;28;20258;-66
2023/07/06 03:14:12;;;;;;;2.35;1.98;;;16.60;90.10;;;;;;10446454;28;20034;-66
2023/07/06 03:19:13;;;;;;;3.83;2.30;;;16.70;90.10;;;;;;10447978;28;20105;-66
2023/07/06 03:24:13;;;;;;;2.90;2.00;;;16.60;90.10;;;;;;10440637;28;20116;-66
2023/07/06 03:29:14;;;;;;;4.57;2.38;;;16.60;90.10;;;;;;10447753;28;20036;-66
2023/07/06 03:34:15;;;;;;;3.45;1.88;;;16.60;90.20;;;;;;10438631;28;20108;-66
2023/07/06 03:39:15;;;;;;;3.45;1.85;;;16.60;90.20;;;;;;10438173;28;20109;-67
2023/07/06 03:44:16;;;;;;;3.75;2.20;;;16.60;90.20;;;;;;10450164;28;20020;-66
2023/07/06 03:49:18;;;;;;;4.97;2.28;;;16.60;90.20;;;;;;10447557;28;20520;-67
2023/07/06 03:54:19;;;;;;;3.65;2.35;;;16.60;90.20;;;;;;10444880;28;20509;-66
2023/07/06 03:59:20;;;;;;;4.30;2.25;;;16.60;90.20;;;;;;10433343;28;20049;-66
2023/07/06 04:04:26;;;;;;;4.25;2.03;;;16.60;90.30;;;;;;10445684;28;20368;-66
2023/07/06 04:09:28;;;;;;;5.05;2.60;;;16.60;90.30;;;;;;10437749;28;20431;-67
2023/07/06 04:14:29;;;;;;;3.75;2.47;;;16.60;90.30;;;;;;10448739;28;20030;-65
2023/07/06 04:19:30;;;;;;;2.67;2.17;;;16.60;90.30;;;;;;10449781;28;20137;-67
2023/07/06 04:24:31;;;;;;;3.08;2.20;;;16.60;90.30;;;;;;10450256;28;20029;-66
2023/07/06 04:29:32;;;;;;;2.30;1.77;;;16.60;90.30;;;;;;10442991;28;20017;-66
2023/07/06 04:34:32;;;;;;;3.00;1.92;;;16.60;90.40;;;;;;10438833;28;20021;-66
2023/07/06 04:39:36;;;;;;;4.70;2.53;;;16.60;90.40;;;;;;10440874;28;20028;-64
2023/07/06 04:44:37;;;;;;;5.40;2.35;;;16.60;90.40;;;;;;10439421;28;20463;-66
2023/07/06 04:49:38;;;;;;;3.42;1.85;;;16.60;90.40;;;;;;10442450;28;20104;-67
2023/07/06 04:54:39;;;;;;;5.18;2.40;;;16.60;90.40;;;;;;10449968;28;20370;-66
2023/07/06 04:59:41;;;;;;;4.63;1.95;;;16.60;90.40;;;;;;10435938;28;20013;-67
2023/07/06 05:04:43;;;;;;;4.90;1.90;;;16.60;90.40;;;;;;10436239;28;20032;-67
2023/07/06 05:09:43;;;;;;;4.50;2.30;;;16.60;90.40;;;;;;10436039;28;20390;-66
2023/07/06 05:14:44;;;;;;;4.75;1.95;;;16.60;90.40;;;;;;10436802;28;20013;-67
2023/07/06 05:19:45;;;;;;;4.10;2.03;;;16.60;90.40;;;;;;10435478;28;20100;-65
2023/07/06 05:24:48;;;;;;;4.03;2.00;;;16.60;90.30;;;;;;10436837;28;20037;-67
2023/07/06 05:29:50;;;;;;;3.65;1.90;;;16.60;90.30;;;;;;10445363;28;20443;-65
2023/07/06 05:34:50;;;;;;;5.32;1.83;;;16.60;90.60;;;;;;10434822;28;20075;-66
2023/07/06 05:39:51;;;;;;;4.05;1.90;;;16.60;90.30;;;;;;10434056;28;20051;-67
2023/07/06 05:44:52;;;;;;;5.72;2.15;;;16.60;90.30;;;;;;10439885;28;20021;-65
2023/07/06 05:49:53;;;;;;;3.72;1.65;;;16.60;90.30;;;;;;10449148;28;20024;-65
2023/07/06 05:54:54;;;;;;;2.67;1.95;;;16.60;90.30;;;;;;10446621;28;20025;-67
2023/07/06 05:59:55;;;;;;;5.32;1.95;;;16.70;90.30;;;;;;10448235;28;20443;-66
2023/07/06 06:04:56;;;;;;;6.32;2.00;;;16.70;90.20;;;;;;10436145;28;20392;-66
2023/07/06 06:09:58;;;;;;;4.75;2.03;;;16.70;90.30;;;;;;10450196;28;20039;-66
2023/07/06 06:14:59;;;;;;;4.47;2.47;;;16.70;90.20;;;;;;10444012;28;20823;-67
2023/07/06 06:20:00;;;;;;;3.50;1.88;;;16.70;90.30;;;;;;10449957;28;20150;-67
2023/07/06 06:25:02;;;;;;;4.75;1.80;;;16.70;90.20;;;;;;10449512;28;20508;-65
2023/07/06 06:30:05;;;;;;;3.47;1.73;;;16.70;90.20;;;;;;10445890;28;20049;-67
2023/07/06 06:35:23;;;;;;;3.67;1.63;;;16.80;90.20;;;;;;10447131;28;20032;-66
2023/07/06 06:40:24;;;;;;;;;;;16.80;90.20;;;;;;10444250;28;20053;-66
2023/07/06 06:45:25;;;;;;;3.22;1.70;;;16.80;90.30;;;;;;10443915;28;19943;-66
2023/07/06 06:50:28;;;;;;;6.40;1.80;;;16.80;90.00;;;;;;10453127;28;20104;-67
2023/07/06 06:55:29;;;;;;;3.80;1.90;;;16.90;90.00;;;;;;10439369;28;20104;-64
2023/07/06 07:00:30;;;;;;;2.95;1.80;;;16.90;90.10;;;;;;10447620;28;20294;-67
2023/07/06 07:05:30;;;;;;;4.03;1.75;;;16.90;90.10;;;;;;10442745;28;20052;-65
2023/07/06 07:10:31;;;;;;;3.42;1.92;;;17.00;90.10;;;;;;10447200;28;20048;-66
2023/07/06 07:15:32;;;;;;;4.28;1.70;;;17.00;90.10;;;;;;10447113;28;20032;-66
2023/07/06 07:20:32;;;;;;;5.47;1.90;;;17.00;90.10;;;;;;10444758;28;20392;-67
2023/07/06 07:25:33;;;;;;;4.25;1.95;;;17.10;90.40;;;;;;10446697;28;20060;-66
2023/07/06 07:30:34;;;;;;;6.47;1.88;;;17.10;90.10;;;;;;10448877;28;20055;-65
2023/07/06 07:35:36;;;;;;;4.30;1.73;;;17.10;90.10;;;;;;10448511;28;20476;-65
2023/07/06 07:40:37;;;;;;;5.03;1.80;;;17.10;90.10;;;;;;10444347;28;20044;-66
2023/07/06 07:45:37;;;;;;;6.32;1.75;;;17.20;90.10;;;;;;10453961;28;20028;-65
2023/07/06 07:50:38;;;;;;;2.53;1.90;;;17.20;90.10;;;;;;10446742;28;20471;-67
2023/07/06 07:55:40;;;;;;;3.45;1.73;;;17.20;90.10;;;;;;10454419;28;20033;-67
2023/07/06 08:00:47;;;;;;;3.35;1.60;;;17.20;90.10;;;;;;10446313;28;20496;-66
2023/07/06 08:05:47;;;;;;;4.93;2.35;;;17.30;90.20;;;;;;10452714;28;20674;-67
2023/07/06 08:10:49;;;;;;;3.95;2.00;;;17.30;90.20;;;;;;10441480;28;20571;-67
2023/07/06 08:15:50;;;;;;;4.88;2.00;;;17.40;90.20;;;;;;10448766;28;20477;-67
2023/07/06 08:20:53;;;;;;;4.38;1.90;;;17.40;90.20;;;;;;10449092;28;20016;-67
2023/07/06 08:25:56;;;;;;;3.30;1.60;;;17.40;90.20;;;;;;10437584;28;20029;-67
2023/07/06 08:31:01;;;;;;;3.97;2.22;;;17.50;90.20;;;;;;10446539;28;20017;-67
2023/07/06 08:36:06;;;;;;;3.83;1.80;;;17.60;90.20;;;;;;10444265;28;20025;-67
2023/07/06 08:41:18;;;;;;;3.95;1.90;;;17.70;90.20;;;;;;10444376;28;20504;-68
2023/07/06 08:46:18;;;;;;;4.00;2.00;;;17.70;90.20;;;;;;10440968;28;20029;-67
2023/07/06 08:51:28;;;;;;;4.95;2.33;;;17.70;90.20;;;;;;10436020;28;20025;-68
2023/07/06 08:56:36;;;;;;;4.13;2.20;;;17.70;90.20;;;;;;10441949;28;20487;-67
2023/07/06 09:01:37;;;;;;;3.10;1.90;;;17.80;90.20;;;;;;10430528;28;20567;-67
2023/07/06 09:06:43;;;;;;;4.43;2.08;;;17.80;90.10;;;;;;10439673;28;20446;-68
2023/07/06 09:11:46;;;;;;;5.22;2.10;;;17.90;90.10;;;;;;10444410;28;20643;-67
2023/07/06 09:16:55;;;;;;;3.95;1.80;;;17.90;90.10;;;;;;10434807;28;20046;-67
2023/07/06 09:21:56;;;;;;;4.05;1.75;;;17.90;90.10;;;;;;10437241;28;20082;-67
2023/07/06 09:26:58;;;;;;;2.97;1.50;;;17.90;90.10;;;;;;10430639;28;20025;-67
2023/07/06 09:32:20;;;;;;;3.83;2.05;;;17.90;90.10;;;;;;10432248;28;20021;-67
2023/07/06 09:37:20;;;;;;;2.47;1.65;;;18.00;90.50;;;;;;10443684;28;20049;-67
2023/07/06 09:42:22;;;;;;;3.53;1.92;;;18.00;90.10;;;;;;10443577;28;20115;-67
2023/07/06 09:47:23;;;;;;;3.88;1.88;;;18.00;90.20;;;;;;10450849;28;20685;-67
2023/07/06 09:52:25;;;;;;;4.13;1.55;;;18.10;90.10;;;;;;10452028;28;20052;-67
2023/07/06 09:57:35;;;;;;;4.25;1.65;;;18.10;90.10;;;;;;10442668;28;20017;-67
2023/07/06 10:02:39;;;;;;;4.55;2.00;;;18.10;90.20;;;;;;10443998;28;20099;-67
2023/07/06 10:08:02;;;;;;;2.70;1.63;;;18.10;90.20;;;;;;10445839;28;20025;-67
2023/07/06 10:13:23;;;;;;;3.65;1.88;;;18.10;90.20;;;;;;10436738;28;20086;-67
2023/07/06 10:18:30;;;;;;;3.45;1.95;;;18.10;90.20;;;;;;10449023;28;20029;-67
2023/07/06 10:23:49;;;;;;;4.60;1.90;;;18.10;90.20;;;;;;10442882;28;20028;-68
2023/07/06 10:29:16;;;;;;;2.78;1.60;;;18.10;90.20;;;;;;10449869;28;20112;-67
2023/07/06 10:34:33;;;;;;;4.43;1.80;;;18.20;90.20;;;;;;10432254;28;20025;-67
2023/07/06 10:39:43;;;;;;;3.47;1.60;;;18.30;90.20;;;;;;10445525;28;20020;-68
2023/07/06 10:44:48;;;;;;;3.20;1.65;;;18.30;90.10;;;;;;10439478;28;20068;-67
2023/07/06 10:50:07;;;;;;;2.88;1.80;;;18.40;90.00;;;;;;10447074;28;20033;-67
2023/07/06 10:55:19;;;;;;;2.90;1.70;;;18.50;90.00;;;;;;10440651;28;20146;-67
2023/07/06 11:00:29;;;;;;;3.63;1.45;;;18.50;89.90;;;;;;10442882;28;20516;-67
2023/07/06 11:05:33;;;;;;;3.33;1.73;;;18.60;89.80;;;;;;10446422;28;20111;-67
2023/07/06 11:10:48;;;;;;;4.10;1.80;;;18.60;89.70;;;;;;10447082;28;20020;-67
2023/07/06 11:15:51;;;;;;;4.72;1.60;;;18.60;89.50;;;;;;10444897;28;20025;-67
2023/07/06 11:21:14;;;;;;;2.92;1.60;;;18.70;89.40;;;;;;10441056;28;20025;-67
2023/07/06 11:27:11;;;;;;;5.00;1.83;;;18.80;89.20;;;;;;10442524;28;20040;-67
2023/07/06 11:32:47;;;;;;;2.03;1.43;;;18.90;89.10;;;;;;10455873;28;20393;-67
2023/07/06 11:38:00;;;;;;;2.83;1.60;;;19.00;89.00;;;;;;10444191;28;20025;-67
2023/07/06 11:43:27;;;;;;;3.58;1.60;;;19.00;88.90;;;;;;10450092;28;20522;-67
2023/07/06 11:48:38;;;;;;;3.25;1.77;;;19.10;88.90;;;;;;10447849;28;20040;-67
2023/07/06 11:53:54;;;;;;;2.65;1.77;;;19.10;88.80;;;;;;10447735;28;20472;-67
2023/07/06 11:58:56;;;;;;;2.20;1.40;;;19.10;88.80;;;;;;10442371;28;20017;-67
2023/07/06 12:04:02;;;;;;;3.85;1.67;;;19.00;88.90;;;;;;10447961;28;20013;-67
2023/07/06 12:09:06;;;;;;;4.20;1.92;;;19.00;89.00;;;;;;10434442;28;20032;-67
2023/07/06 12:14:20;;;;;;;3.25;1.98;;;18.90;89.20;;;;;;10436799;28;20028;-67
2023/07/06 12:19:22;;;;;;;3.67;2.58;;;18.90;89.40;;;;;;10454318;28;20025;-67
2023/07/06 12:24:26;;;;;;;2.63;1.63;;;18.90;89.60;;;;;;10442673;28;20525;-67
2023/07/06 12:29:31;;;;;;;1.60;1.50;;;18.90;89.70;;;;;;10442031;28;20028;-67
2023/07/06 12:34:32;;;;;;;4.70;1.80;;;18.90;89.60;;;;;;10441226;28;20017;-67
2023/07/06 12:39:38;;;;;;;2.65;1.80;;;19.00;89.50;;;;;;10453463;28;20020;-67
2023/07/06 12:44:47;;;;;;;4.65;2.08;;;19.10;89.50;;;;;;10444856;28;20017;-67
2023/07/06 12:49:50;;;;;;;3.65;1.80;;;19.10;89.40;;;;;;10442189;28;20040;-67
2023/07/06 12:54:54;;;;;;;2.92;1.73;;;19.10;89.40;;;;;;10448488;28;20021;-67
2023/07/06 13:00:12;;;;;;;2.90;1.65;;;19.10;89.40;;;;;;10439622;28;20021;-67
2023/07/06 13:05:22;;;;;;;;;;;19.10;89.30;;;;;;10446171;28;20024;-67
2023/07/06 13:10:25;;;;;;;4.97;1.90;;;19.10;89.20;;;;;;10452359;28;19933;-67
2023/07/06 13:15:36;;;;;;;2.65;1.70;;;19.20;89.20;;;;;;10443982;28;20052;-67
2023/07/06 13:20:37;;;;;;;3.08;1.90;;;19.20;89.10;;;;;;10436117;28;20032;-67
2023/07/06 13:25:44;;;;;;;2.92;1.83;;;19.20;89.10;;;;;;10450206;28;20036;-67
2023/07/06 13:30:45;;;;;;;4.15;2.00;;;19.20;89.20;;;;;;10432810;28;20018;-67
2023/07/06 13:35:49;;;;;;;2.40;1.73;;;19.20;89.40;;;;;;10439319;28;20030;-67
2023/07/06 13:40:50;;;;;;;5.72;2.28;;;19.10;89.40;;;;;;10440411;28;20090;-67
2023/07/06 13:45:50;;;;;;;3.60;2.00;;;19.10;89.50;;;;;;10435532;28;20445;-67
2023/07/06 13:50:51;;;;;;;2.35;1.60;;;19.10;89.50;;;;;;10447045;28;20033;-67
2023/07/06 13:55:55;;;;;;;3.47;1.77;;;19.20;89.50;;;;;;10438701;28;20009;-67
2023/07/06 14:00:56;;;;;;;5.30;1.88;;;19.30;89.30;;;;;;10443799;28;20348;-67
2023/07/06 14:05:57;;;;;;;2.38;1.73;;;19.40;88.80;;;;;;10451251;28;20055;-66
2023/07/06 14:11:00;;;;;;;3.63;1.50;;;19.60;88.50;;;;;;10445036;28;20032;-66
2023/07/06 14:16:01;;;;;;;3.97;2.00;;;19.80;88.20;;;;;;10452968;28;20029;-66
2023/07/06 14:21:05;;;;;;;3.08;1.88;;;19.90;87.90;;;;;;10450643;28;20047;-64
2023/07/06 14:26:05;;;;;;;3.67;1.98;;;20.00;87.50;;;;;;10444625;28;20036;-66
2023/07/06 14:31:12;;;;;;;3.30;1.73;;;20.10;87.10;;;;;;10445206;28;20032;-65
2023/07/06 14:36:14;;;;;;;3.92;1.65;;;20.30;86.80;;;;;;10447544;28;20563;-66
2023/07/06 14:41:15;;;;;;;3.63;1.75;;;20.40;86.50;;;;;;10447368;28;20361;-67
2023/07/06 14:46:16;;;;;;;4.68;1.90;;;20.40;86.40;;;;;;10438880;28;20448;-66
2023/07/06 14:51:18;;;;;;;3.83;2.00;;;20.40;86.40;;;;;;10448325;28;20123;-66
2023/07/06 14:56:21;;;;;;;1.73;1.27;;;20.50;86.70;;;;;;10433460;28;20108;-66
2023/07/06 15:01:21;;;;;;;3.83;1.60;;;20.50;86.90;;;;;;10450566;28;20025;-67
2023/07/06 15:06:22;;;;;;;4.13;1.70;;;20.50;87.10;;;;;;10445593;28;20234;-66
2023/07/06 15:11:23;;;;;;;4.85;1.60;;;20.50;86.90;;;;;;10433657;28;20039;-67
2023/07/06 15:16:23;;;;;;;2.53;1.60;;;20.50;86.90;;;;;;10445572;28;20035;-67
2023/07/06 15:21:25;;;;;;;2.63;1.52;;;20.40;87.00;;;;;;10448147;28;20029;-67
2023/07/06 15:26:27;;;;;;;2.85;1.48;;;20.30;87.10;;;;;;10437302;28;20417;-67
2023/07/06 15:31:29;;;;;;;2.55;1.38;;;20.30;87.20;;;;;;10438842;28;20187;-65
2023/07/06 15:36:30;;;;;;;4.78;1.70;;;20.30;87.30;;;;;;10434006;28;20040;-66
2023/07/06 15:41:32;;;;;;;3.10;1.70;;;20.30;87.20;;;;;;10450261;28;20549;-67
2023/07/06 15:46:33;;;;;;;3.78;1.25;;;20.30;87.20;;;;;;10443387;28;20099;-68
2023/07/06 15:51:34;;;;;;;3.72;1.70;;;20.30;87.20;;;;;;10436860;28;20175;-67
2023/07/06 15:56:35;;;;;;;2.20;1.50;;;20.40;87.30;;;;;;10445160;28;20031;-67
2023/07/06 16:01:37;;;;;;;2.78;1.35;;;20.40;87.20;;;;;;10440635;28;20013;-67
2023/07/06 16:06:40;;;;;;;2.50;1.30;;;20.40;87.20;;;;;;10439539;28;20524;-66
2023/07/06 16:11:41;;;;;;;2.08;1.33;;;20.40;87.20;;;;;;10438678;28;20017;-66
2023/07/06 16:16:42;;;;;;;1.58;1.10;;;20.40;87.20;;;;;;10446746;28;20481;-67
2023/07/06 16:21:42;;;;;;;1.60;1.20;;;20.40;87.20;;;;;;10441044;28;20169;-66
2023/07/06 16:26:45;;;;;;;2.97;1.30;;;20.40;87.20;;;;;;10447393;28;20032;-67
2023/07/06 16:31:45;;;;;;;2.80;1.25;;;20.40;87.20;;;;;;10436935;28;20025;-68
2023/07/06 16:36:46;;;;;;;1.20;1.10;;;20.30;87.30;;;;;;10441091;28;20412;-66
2023/07/06 16:41:49;;;;;;;1.20;1.10;;;20.30;87.30;;;;;;10444714;28;20025;-66
2023/07/06 16:46:49;;;;;;;2.38;0.90;;;20.30;87.40;;;;;;10442657;28;20029;-66
2023/07/06 16:51:50;;;;;;;2.45;1.00;;;20.30;87.40;;;;;;10440215;28;20500;-67
2023/07/06 16:56:51;;;;;;;1.48;1.08;;;20.30;87.50;;;;;;10442266;28;20087;-66
2023/07/06 17:01:51;;;;;;;1.92;1.20;;;20.30;87.60;;;;;;10431427;28;20024;-67
2023/07/06 17:06:53;;;;;;;1.90;1.30;;;20.20;87.60;;;;;;10451064;28;20475;-67
2023/07/06 17:11:53;;;;;;;1.35;1.00;;;20.20;87.60;;;;;;10438610;28;20028;-67
2023/07/06 17:16:54;;;;;;;1.20;0.93;;;20.20;87.60;;;;;;10440758;28;20037;-67
2023/07/06 17:21:55;;;;;;;1.67;1.30;;;20.20;88.20;;;;;;10452020;28;20017;-67
2023/07/06 17:26:55;;;;;;;1.65;1.08;;;20.20;87.60;;;;;;10443363;28;20568;-67
2023/07/06 17:31:56;;;;;;;1.33;1.10;;;20.20;87.60;;;;;;10453832;28;20025;-67
2023/07/06 17:36:57;;;;;;;2.35;1.10;;;20.20;87.70;;;;;;10435982;28;20060;-66
2023/07/06 17:41:57;;;;;;;1.10;1.00;;;20.20;87.80;;;;;;10442919;28;20112;-68
2023/07/06 17:46:58;;;;;;;1.15;0.90;;;20.20;87.80;;;;;;10446987;28;20421;-66
2023/07/06 17:51:59;;;;;;;1.27;0.88;;;20.20;87.90;;;;;;10437691;28;20608;-67
2023/07/06 17:56:59;;;;;;;1.63;1.27;;;20.10;87.80;;;;;;10451174;28;20096;-67
2023/07/06 18:02:00;;;;;;;1.63;1.10;;;20.20;87.90;;;;;;10445925;28;20025;-66
2023/07/06 18:07:01;;;;;;;1.67;1.25;;;20.10;87.90;;;;;;10457244;28;20032;-66
2023/07/06 18:12:02;;;;;;;1.40;1.10;;;20.10;87.90;;;;;;10439747;28;20021;-66
2023/07/06 18:17:03;;;;;;;2.53;1.10;;;20.10;88.00;;;;;;10449321;28;20017;-66
2023/07/06 18:22:03;;;;;;;2.95;1.20;;;20.10;88.00;;;;;;10450359;28;20028;-67
2023/07/06 18:27:04;;;;;;;1.60;1.20;;;20.00;87.90;;;;;;10446044;28;20053;-66
2023/07/06 18:32:06;;;;;;;3.00;1.30;;;20.00;88.00;;;;;;10446455;28;20025;-68
2023/07/06 18:37:06;;;;;;;0.82;0.82;;;20.00;88.10;;;;;;10448423;28;20113;-67
2023/07/06 18:42:07;;;;;;;1.73;1.20;;;19.90;88.20;;;;;;10452029;28;20287;-67
2023/07/06 18:47:08;;;;;;;1.80;1.13;;;19.90;88.30;;;;;;10450723;28;20039;-66
2023/07/06 18:52:12;;;;;;;2.00;1.10;;;19.80;88.30;;;;;;10445086;28;20029;-66
2023/07/06 18:57:16;;;;;;;2.05;0.98;;;19.80;88.20;;;;;;10432506;28;20021;-68
2023/07/06 19:02:16;;;;;;;1.40;1.10;;;19.70;88.30;;;;;;10431306;28;20029;-68
2023/07/06 19:07:17;;;;;;;1.77;0.90;;;19.70;88.40;;;;;;10437327;28;20413;-68
2023/07/06 19:12:18;;;;;;;1.02;0.90;;;19.70;88.40;;;;;;10437871;28;20480;-67
2023/07/06 19:17:18;;;;;;;1.35;1.20;;;19.70;88.50;;;;;;10446715;28;20489;-67
2023/07/06 19:22:19;;;;;;;2.28;0.95;;;19.70;88.50;;;;;;10443563;28;20033;-67
2023/07/06 19:27:20;;;;;;;1.80;0.90;;;19.70;88.50;;;;;;10435233;28;20026;-67
2023/07/06 19:32:20;;;;;;;1.98;1.00;;;19.60;88.60;;;;;;10436922;28;20025;-66
2023/07/06 19:37:21;;;;;;;1.77;1.25;;;19.50;88.60;;;;;;10442998;28;20036;-68
2023/07/06 19:42:22;;;;;;;1.40;0.85;;;19.50;88.70;;;;;;10436899;28;20083;-66
2023/07/06 19:47:23;;;;;;;2.53;1.23;;;19.50;88.70;;;;;;10449720;28;20029;-67
2023/07/06 19:52:23;;;;;;;2.10;1.15;;;19.40;88.70;;;;;;10444996;28;20488;-67
2023/07/06 19:57:25;;;;;;;1.35;0.98;;;19.40;88.80;;;;;;10445287;28;20037;-66
2023/07/06 20:02:25;;;;;;;1.95;1.45;;;19.30;88.90;;;;;;10438368;28;20130;-67
2023/07/06 20:07:29;;;;;;;2.15;1.10;;;19.40;89.00;;;;;;10441273;28;20583;-66
2023/07/06 20:12:31;;;;;;;1.95;1.00;;;19.30;89.00;;;;;;10438122;28;20086;-65
2023/07/06 20:17:33;;;;;;;2.17;1.20;;;19.30;89.10;;;;;;10445784;28;20028;-67
2023/07/06 20:22:34;;;;;;;1.98;1.10;;;19.20;89.10;;;;;;10434745;28;20488;-66
2023/07/06 20:27:34;;;;;;;4.05;2.25;;;19.20;89.20;;;;;;10436769;28;20029;-66
2023/07/06 20:32:36;;;;;;;1.67;1.17;;;19.20;89.20;;;;;;10435441;28;20179;-66
2023/07/06 20:37:36;;;;;;;1.50;0.90;;;19.10;89.20;;;;;;10440277;28;20013;-67
2023/07/06 20:42:37;;;;;;;1.73;1.20;;;19.10;89.30;;;;;;10442412;28;20029;-67
2023/07/06 20:47:38;;;;;;;2.78;1.33;;;19.10;89.30;;;;;;10443160;28;20021;-66
2023/07/06 20:52:38;;;;;;;2.95;1.42;;;19.00;89.30;;;;;;10433008;28;20423;-67
2023/07/06 20:57:39;;;;;;;2.03;1.02;;;19.10;89.40;;;;;;10446230;28;20503;-66
2023/07/06 21:02:40;;;;;;;1.60;1.23;;;19.00;89.40;;;;;;10435952;28;20025;-67
2023/07/06 21:07:41;;;;;;;1.20;1.10;;;18.90;89.40;;;;;;10435732;28;20028;-67
2023/07/06 21:12:41;;;;;;;1.98;1.33;;;19.00;89.40;;;;;;10434169;28;20108;-67
2023/07/06 21:17:42;;;;;;;2.10;1.20;;;18.90;89.40;;;;;;10436047;28;20025;-66
2023/07/06 21:22:43;;;;;;;3.45;1.45;;;18.90;89.50;;;;;;10440418;28;20016;-67
2023/07/06 21:27:43;;;;;;;1.58;1.25;;;18.90;89.40;;;;;;10436236;28;20532;-67
2023/07/06 21:32:44;;;;;;;2.20;1.33;;;18.80;89.40;;;;;;10446545;28;20445;-67
2023/07/06 21:37:45;;;;;;;2.25;1.17;;;18.80;89.40;;;;;;10449825;28;20385;-66
2023/07/06 21:42:50;;;;;;;1.50;1.08;;;18.80;89.40;;;;;;10451467;28;20029;-67
2023/07/06 21:47:51;;;;;;;1.90;1.40;;;18.70;89.40;;;;;;10454592;28;20534;-67
2023/07/06 21:52:52;;;;;;;1.70;1.20;;;18.70;89.50;;;;;;10451299;28;20029;-67
2023/07/06 21:57:53;;;;;;;1.38;1.00;;;18.70;89.50;;;;;;10452012;28;20013;-67
2023/07/06 22:02:53;;;;;;;1.90;1.33;;;18.70;89.50;;;;;;10444630;28;20100;-66
2023/07/06 22:07:54;;;;;;;2.40;1.48;;;18.60;89.50;;;;;;10449525;28;20017;-67
2023/07/06 22:12:55;;;;;;;3.15;1.60;;;18.60;89.50;;;;;;10440979;28;20032;-67
2023/07/06 22:17:55;;;;;;;4.90;1.30;;;18.60;89.50;;;;;;10449963;28;20145;-67
2023/07/06 22:22:56;;;;;;;2.13;1.10;;;18.60;89.50;;;;;;10451181;28;20032;-67
2023/07/06 22:27:57;;;;;;;2.38;1.42;;;18.50;89.50;;;;;;10444829;28;20128;-66
2023/07/06 22:32:57;;;;;;;2.33;1.60;;;18.50;89.60;;;;;;10437416;28;20032;-67
2023/07/06 22:37:58;;;;;;;3.15;1.40;;;18.40;89.50;;;;;;10447638;28;20013;-67
2023/07/06 22:43:00;;;;;;;2.60;1.25;;;18.40;89.60;;;;;;10437749;28;20037;-67
2023/07/06 22:48:02;;;;;;;2.72;1.30;;;18.40;89.50;;;;;;10442429;28;20082;-67
2023/07/06 22:53:05;;;;;;;4.63;1.73;;;18.30;89.50;;;;;;10451788;28;20504;-67
2023/07/06 22:58:07;;;;;;;1.40;1.05;;;18.30;89.50;;;;;;10441123;28;20024;-66
2023/07/06 23:03:07;;;;;;;2.05;1.52;;;18.30;89.50;;;;;;10440750;28;20370;-67
2023/07/06 23:08:10;;;;;;;3.13;1.58;;;18.30;89.40;;;;;;10452730;28;20023;-66
2023/07/06 23:13:12;;;;;;;2.42;1.48;;;18.20;89.40;;;;;;10448357;28;20029;-67
2023/07/06 23:18:13;;;;;;;3.05;1.55;;;18.30;89.40;;;;;;10447267;28;20025;-67
2023/07/06 23:23:16;;;;;;;2.67;1.60;;;18.20;89.40;;;;;;10446533;28;20429;-66
2023/07/06 23:28:21;;;;;;;2.33;1.60;;;18.20;89.40;;;;;;10447271;28;20030;-67
2023/07/06 23:33:22;;;;;;;2.58;1.67;;;18.20;89.40;;;;;;10439349;28;20500;-66
2023/07/06 23:38:23;;;;;;;3.90;1.42;;;18.20;89.40;;;;;;10447275;28;20396;-68
2023/07/06 23:43:23;;;;;;;1.73;1.40;;;18.10;89.30;;;;;;10449415;28;20027;-67
2023/07/06 23:48:24;;;;;;;2.63;1.52;;;18.10;89.30;;;;;;10454513;28;20529;-66
2023/07/06 23:53:25;;;;;;;3.35;1.60;;;18.10;89.30;;;;;;10449436;28;20033;-67
2023/07/06 23:58:25;;;;;;;2.47;1.58;;;18.10;89.40;;;;;;10443430;28;20023;-66
